TOALB weather

Campo di Volo "Flying Tigers"
Albiano d'Ivrea, Piedmont, Italy

Public forecast

Using degrees Celsius for public forecast. Weather courtesy of forecast.io.

METAR (pilot weather report)

Closest report is Turin Airport, 18.9 nm (34.9 km) SW. Retrieved 2019/07/20 05:20 UTC (0 seconds ago):

LIMF 200520Z VRB01KT 9999 BKN060 23/18 Q1018

TAF (pilot weather forecast)

Forecast is more than 12 hours old.

Closest forecast is Turin Airport, 18.9 nm (34.9 km) SW. Retrieved 2019/07/19 00:00 UTC (1 day ago):

TAF LIMF 192300Z 2000/2024 VRB05KT 9999 SCT040